Tapachula, Mexico

8:14 PM CST on December 20, 2014 (GMT -0600)
Tapachula International | Change Station
CLOSE
Current Station
Airport
Location: Tapachula Airport,
Elevation: 95 ft
Nearby Weather Stations

Elev 95 ft 14.79 °N, 92.37 °W | Updated 32 minutes ago

Scattered Clouds
Scattered Clouds
81 °F
Feels Like 86 °F
N
0
Wind Variable Wind from North

Today
High -- | Low -- °F
--% Chance of Precip.
Yesterday
High -- | Low -- °F
Precip. -- in
6:29 AM 5:44 PM
Waning Crescent, 1% visible
Pressure 29.92 in
Visibility 10.0 miles
Clouds Scattered Clouds 20000 ft
Heat Index 86 °F
Dew Point 75 °F
Humidity 84%
Rainfall 0.00 in
Snow Depth Not available.
UV 0 out of 12
Pollen Not available.
Air Quality Not available.
Flu Activity Not available.
METAR MMTP 210142Z 00000KT 10SM SCT200 27/24 A2992 RMK 8/004

More Conditions Fewer Conditions

Pressure 29.92 in
Visibility 10.0 miles
Clouds Scattered Clouds 20000 ft
Heat Index 86 °F
Dew Point 75 °F
Humidity 84%
Rainfall 0.00 in
Snow Depth Not available.
UV 0 out of 12
Pollen Not available.
Air Quality Not available.
Flu Activity Not available.
METAR MMTP 210142Z 00000KT 10SM SCT200 27/24 A2992 RMK 8/004

More Conditions Fewer Conditions

10-Day Weather Forecast

Almanac

Astronomy

Dec. 20, 2014 Rise Set
Actual Time
Civil Twilight
Nautical Twilight
Astronomical Twilight
Moon
Length of Visible Light
Length of Day
Tomorrow will be .
, % of the Moon is Illuminated

Today's Extremes

Country Highs Country Lows

Community

WunderPhotos

Upload Photos

1,779,346 photos uploaded!

WunderBlogs® & News

Nearby

Air Quality

  Air Quality AQ Index Pollutant
Not available.

Snow Depth

Station Depth Elevation

Earthquake Activity

City Distance Mag. Time & Date
Minimum magnitude displayed is 2.5.

Coastal Water Temperatures

Place Temperature

Nearby Weather Stations